createdAt,value
2022-09-23T00:02:16.826Z,95484.75
2022-09-23T00:04:45.107Z,95485.19
2022-09-23T00:07:13.361Z,95479.84
2022-09-23T00:09:41.556Z,95475.66
2022-09-23T00:12:10.380Z,95473.91
2022-09-23T00:14:40.166Z,95475.03
2022-09-23T00:17:08.534Z,95474.00
2022-09-23T00:19:40.360Z,95475.56
2022-09-23T00:22:08.980Z,95469.69
2022-09-23T00:24:37.185Z,95471.81
2022-09-23T00:27:05.868Z,95473.00
2022-09-23T00:29:34.292Z,95486.06
2022-09-23T00:32:02.766Z,95476.50
2022-09-23T00:34:31.335Z,95481.81
2022-09-23T00:37:00.982Z,95472.06
2022-09-23T00:39:29.168Z,95476.34
2022-09-23T00:41:57.421Z,95481.13
2022-09-23T00:44:45.451Z,95472.44
2022-09-23T00:47:19.181Z,95472.16
2022-09-23T00:49:51.029Z,95474.00
2022-09-23T00:52:24.547Z,95476.63
2022-09-23T00:54:56.468Z,95463.47
2022-09-23T00:57:26.636Z,95473.59
2022-09-23T00:59:55.139Z,95474.91
2022-09-23T01:02:23.898Z,95479.69
2022-09-23T01:04:52.862Z,95474.94
2022-09-23T01:07:22.497Z,95480.22
2022-09-23T01:09:51.143Z,95478.47
2022-09-23T01:12:37.685Z,95467.56
2022-09-23T01:15:12.608Z,95480.53
2022-09-23T01:17:48.762Z,95475.34
2022-09-23T01:20:41.987Z,95488.06
2022-09-23T01:23:39.165Z,95484.03
2022-09-23T01:26:22.515Z,95471.31
2022-09-23T01:29:08.566Z,95482.81
2022-09-23T01:31:44.159Z,95477.53
2022-09-23T01:34:17.578Z,95486.38
2022-09-23T01:36:50.801Z,95484.41
2022-09-23T01:39:28.156Z,95477.53
2022-09-23T01:42:03.504Z,95493.41
2022-09-23T01:44:39.288Z,95456.00
2022-09-23T01:47:15.282Z,95486.97
2022-09-23T01:49:50.725Z,95481.31
2022-09-23T01:52:26.989Z,95474.88
2022-09-23T01:55:02.540Z,95348.47
2022-09-23T01:57:34.848Z,95485.13
2022-09-23T02:00:07.962Z,95498.47
2022-09-23T02:02:42.186Z,95496.09
2022-09-23T02:05:17.764Z,95488.59
2022-09-23T02:07:53.925Z,95493.09
2022-09-23T02:10:26.674Z,95492.00
2022-09-23T02:13:01.180Z,95504.44
2022-09-23T02:15:35.392Z,95504.97
2022-09-23T02:18:13.431Z,95500.13
2022-09-23T02:20:42.043Z,95508.03
2022-09-23T02:23:14.009Z,95502.69
2022-09-23T02:25:49.132Z,95505.66
2022-09-23T02:28:22.817Z,95513.59
2022-09-23T02:30:56.743Z,95503.03
2022-09-23T02:33:34.485Z,95500.56
2022-09-23T02:36:10.282Z,95506.28
2022-09-23T02:38:42.547Z,95506.44
2022-09-23T02:41:15.138Z,95504.56
2022-09-23T02:43:50.898Z,95493.94
2022-09-23T02:46:19.903Z,95509.88
2022-09-23T02:48:55.183Z,95495.47
2022-09-23T02:51:25.920Z,95494.69
2022-09-23T02:53:57.084Z,95503.56
2022-09-23T02:56:26.117Z,95503.06
2022-09-23T02:58:56.083Z,95496.19
2022-09-23T03:01:35.606Z,95496.94
2022-09-23T03:04:15.942Z,95501.19
2022-09-23T03:06:53.537Z,95498.19
2022-09-23T03:09:27.076Z,95501.34
2022-09-23T03:12:06.849Z,95500.81
2022-09-23T03:14:44.609Z,95503.00
2022-09-23T03:17:20.552Z,95508.53
2022-09-23T03:19:56.975Z,95507.25
2022-09-23T03:22:31.377Z,95498.47
2022-09-23T03:25:06.120Z,95499.03
2022-09-23T03:27:37.269Z,95493.16
2022-09-23T03:30:08.316Z,95492.66
2022-09-23T03:32:39.527Z,95498.81
2022-09-23T03:35:10.199Z,95502.25
2022-09-23T03:37:43.380Z,95504.56
2022-09-23T03:40:19.505Z,95496.09
2022-09-23T03:42:48.952Z,95497.47
2022-09-23T03:45:21.209Z,95498.28
2022-09-23T03:47:49.471Z,95502.69
2022-09-23T03:50:20.977Z,95507.47
2022-09-23T03:52:50.695Z,95509.13
2022-09-23T03:55:19.902Z,95513.94
2022-09-23T03:57:48.741Z,95514.50
2022-09-23T04:00:17.447Z,95518.69
2022-09-23T04:02:45.887Z,95524.31
2022-09-23T04:05:15.220Z,95526.47
2022-09-23T04:07:44.983Z,95525.16
2022-09-23T04:10:13.295Z,95525.38
2022-09-23T04:12:41.509Z,95510.53
2022-09-23T04:15:10.502Z,95527.63
2022-09-23T04:17:38.793Z,95526.78
2022-09-23T04:20:08.242Z,95527.41
2022-09-23T04:22:38.759Z,95533.63
2022-09-23T04:25:09.761Z,95521.34
2022-09-23T04:27:38.178Z,95524.06
2022-09-23T04:30:07.194Z,95522.81
2022-09-23T04:32:35.552Z,95522.38
2022-09-23T04:35:03.782Z,95530.34
2022-09-23T04:37:32.073Z,95526.81
2022-09-23T04:40:00.583Z,95528.75
2022-09-23T04:42:31.342Z,95530.00
2022-09-23T04:44:59.530Z,95527.09
2022-09-23T04:47:28.369Z,95527.59
2022-09-23T04:49:59.740Z,95524.78
2022-09-23T04:52:28.702Z,95525.38
2022-09-23T04:54:56.964Z,95524.59
2022-09-23T04:57:25.628Z,95502.31
2022-09-23T04:59:57.083Z,95525.91
2022-09-23T05:02:25.598Z,95526.44
2022-09-23T05:04:53.944Z,95528.53
2022-09-23T05:07:22.467Z,95527.75
2022-09-23T05:09:50.714Z,95530.69
2022-09-23T05:12:18.992Z,95533.06
2022-09-23T05:14:47.299Z,95537.31
2022-09-23T05:17:17.138Z,95523.22
2022-09-23T05:19:45.428Z,95539.88
2022-09-23T05:22:13.639Z,95544.19
2022-09-23T05:24:42.063Z,95536.97
2022-09-23T05:27:10.317Z,95534.50
2022-09-23T05:29:38.737Z,95534.34
2022-09-23T05:32:07.086Z,95486.75
2022-09-23T05:34:36.773Z,95526.38
2022-09-23T05:37:05.467Z,95521.19
2022-09-23T05:39:33.769Z,95519.69
2022-09-23T05:42:01.996Z,95534.38
2022-09-23T05:44:30.287Z,95536.97
2022-09-23T05:46:58.815Z,95531.47
2022-09-23T05:49:42.887Z,95526.16
2022-09-23T05:52:17.352Z,95533.78
2022-09-23T05:54:45.655Z,95532.00
2022-09-23T05:57:13.914Z,95526.09
2022-09-23T05:59:42.523Z,95535.09
2022-09-23T06:02:10.779Z,95529.28
2022-09-23T06:04:39.222Z,95537.06
2022-09-23T06:07:07.423Z,95536.38
2022-09-23T06:09:37.065Z,95538.22
2022-09-23T06:12:06.468Z,95544.28
2022-09-23T06:14:35.067Z,95486.66
2022-09-23T06:17:03.299Z,95534.22
2022-09-23T06:19:31.528Z,95521.59
2022-09-23T06:21:59.792Z,95532.63
2022-09-23T06:24:31.348Z,95534.91
2022-09-23T06:27:01.477Z,95511.06
2022-09-23T06:29:30.973Z,95537.06
2022-09-23T06:31:59.778Z,95532.75
2022-09-23T06:34:28.110Z,95530.56
2022-09-23T06:36:56.567Z,95532.03
2022-09-23T06:39:24.835Z,95525.75
2022-09-23T06:41:53.026Z,95525.50
2022-09-23T06:44:22.693Z,95532.59
2022-09-23T06:46:52.189Z,95522.44
2022-09-23T06:49:22.857Z,95530.25
2022-09-23T06:51:51.152Z,95527.97
2022-09-23T06:54:20.410Z,95520.81
2022-09-23T06:56:48.655Z,95532.63
2022-09-23T06:59:18.451Z,95529.47
2022-09-23T07:01:48.533Z,95520.53
2022-09-23T07:04:17.006Z,95529.50
2022-09-23T07:06:45.336Z,95540.53
2022-09-23T07:09:13.585Z,95528.50
2022-09-23T07:11:41.861Z,95531.44
2022-09-23T07:14:10.139Z,95525.25
2022-09-23T07:16:38.449Z,95526.78
2022-09-23T07:19:08.093Z,95533.72
2022-09-23T07:21:36.917Z,95538.00
2022-09-23T07:24:05.529Z,95534.03
2022-09-23T07:26:34.308Z,95539.22
2022-09-23T07:29:04.962Z,95541.03
2022-09-23T07:31:39.367Z,95537.81
2022-09-23T07:34:11.844Z,95524.41
2022-09-23T07:36:41.779Z,95519.28
2022-09-23T07:39:12.577Z,95521.81
2022-09-23T07:41:41.856Z,95525.44
2022-09-23T07:44:11.896Z,95519.97
2022-09-23T07:46:40.342Z,95501.97
2022-09-23T07:49:10.876Z,95496.31
2022-09-23T07:51:40.788Z,95503.75
2022-09-23T07:54:12.305Z,95505.53
2022-09-23T07:56:40.948Z,95498.00
2022-09-23T07:59:12.282Z,95490.50
2022-09-23T08:01:42.895Z,95481.19
2022-09-23T08:04:17.248Z,95478.44
2022-09-23T08:06:47.236Z,95480.31
2022-09-23T08:09:16.573Z,95481.84
2022-09-23T08:11:44.821Z,95480.50
2022-09-23T08:14:14.769Z,95486.06
2022-09-23T08:16:44.885Z,95466.78
2022-09-23T08:19:15.339Z,95480.50
2022-09-23T08:21:44.186Z,95470.97
2022-09-23T08:24:15.539Z,95475.59
2022-09-23T08:26:44.051Z,95473.84
2022-09-23T08:29:14.039Z,95470.75
2022-09-23T08:31:42.458Z,95464.09
2022-09-23T08:34:11.193Z,95450.31
2022-09-23T08:36:41.080Z,95454.25
2022-09-23T08:39:09.472Z,95453.53
2022-09-23T08:41:44.813Z,95453.88
2022-09-23T08:44:17.877Z,95432.03
2022-09-23T08:46:51.012Z,95435.00
2022-09-23T08:49:29.067Z,95446.53
2022-09-23T08:52:06.889Z,95440.53
2022-09-23T08:54:35.191Z,95440.91
2022-09-23T08:57:06.371Z,95398.13
2022-09-23T08:59:42.884Z,95435.16
2022-09-23T09:02:17.024Z,95440.06
2022-09-23T09:04:47.138Z,95431.59
2022-09-23T09:07:36.089Z,95440.44
2022-09-23T09:10:11.041Z,95428.09
2022-09-23T09:12:43.592Z,95432.50
2022-09-23T09:15:15.563Z,95433.28
2022-09-23T09:17:53.880Z,95422.06
2022-09-23T09:20:24.830Z,95428.63
2022-09-23T09:22:59.980Z,95427.81
2022-09-23T09:25:44.325Z,95434.44
2022-09-23T09:28:20.503Z,95434.94
2022-09-23T09:30:54.524Z,95440.94
2022-09-23T09:33:30.588Z,95429.94
2022-09-23T09:36:11.440Z,95439.22
2022-09-23T09:38:41.069Z,95429.56
2022-09-23T09:41:17.181Z,95438.91
2022-09-23T09:43:57.800Z,95433.59
2022-09-23T09:46:41.761Z,95435.34
2022-09-23T09:49:16.980Z,95427.69
2022-09-23T09:51:45.274Z,95424.13
2022-09-23T09:54:27.465Z,95370.06
2022-09-23T09:56:56.559Z,95418.59
2022-09-23T09:59:29.381Z,95415.06
2022-09-23T10:02:15.431Z,95424.72
2022-09-23T10:04:44.111Z,95413.13
2022-09-23T10:07:15.652Z,95420.34
2022-09-23T10:09:52.088Z,95396.94
2022-09-23T10:12:21.812Z,95395.75
2022-09-23T10:14:51.923Z,95374.78
2022-09-23T10:17:23.064Z,95405.06
2022-09-23T10:20:00.407Z,95399.09
2022-09-23T10:22:33.389Z,95400.94
2022-09-23T10:25:08.533Z,95390.09
2022-09-23T10:27:38.971Z,95391.63
2022-09-23T10:30:22.456Z,95378.78
2022-09-23T10:32:52.159Z,95383.19
2022-09-23T10:35:22.677Z,95380.38
2022-09-23T10:37:52.940Z,95372.34
2022-09-23T10:40:46.348Z,95372.63
2022-09-23T10:43:41.109Z,95364.53
2022-09-23T10:46:33.604Z,95338.41
2022-09-23T10:49:28.588Z,95362.63
2022-09-23T10:52:08.736Z,95348.19
2022-09-23T10:54:46.623Z,95354.28
2022-09-23T10:57:41.837Z,95344.94
2022-09-23T11:00:22.351Z,95350.22
2022-09-23T11:03:25.879Z,95347.47
2022-09-23T11:06:06.632Z,95341.94
2022-09-23T11:08:51.555Z,95334.75
2022-09-23T11:11:30.223Z,95164.44
2022-09-23T11:14:24.307Z,95347.34
2022-09-23T11:17:14.828Z,95327.72
2022-09-23T11:20:05.861Z,95328.97
2022-09-23T11:22:49.961Z,95325.88
2022-09-23T11:25:36.341Z,95321.53
2022-09-23T11:28:31.911Z,95325.63
2022-09-23T11:31:14.751Z,95315.19
2022-09-23T11:33:54.399Z,95323.56
2022-09-23T11:36:29.164Z,95309.78
2022-09-23T11:39:02.678Z,95314.00
2022-09-23T11:41:34.146Z,95310.06
2022-09-23T11:44:07.290Z,95314.09
2022-09-23T11:46:42.052Z,95322.88
2022-09-23T11:49:17.157Z,95322.41
2022-09-23T11:52:02.335Z,95314.72
2022-09-23T11:54:38.788Z,95321.44
2022-09-23T11:57:13.173Z,95324.16
2022-09-23T11:59:46.508Z,95315.66
2022-09-23T12:02:30.581Z,95321.81
2022-09-23T12:05:05.174Z,95314.00
2022-09-23T12:07:47.402Z,95315.41
2022-09-23T12:10:16.764Z,95321.78
2022-09-23T12:12:54.254Z,95314.31
2022-09-23T12:15:37.397Z,95323.22
2022-09-23T12:18:42.261Z,95316.06
2022-09-23T12:21:53.327Z,95319.47
2022-09-23T12:24:46.817Z,95314.72
2022-09-23T12:27:25.249Z,95310.47
2022-09-23T12:29:58.050Z,95308.94
2022-09-23T12:32:26.850Z,95307.94
2022-09-23T12:34:57.185Z,95297.59
2022-09-23T12:37:31.190Z,95304.53
2022-09-23T12:40:09.485Z,95305.16
2022-09-23T12:42:46.176Z,95302.41
2022-09-23T12:45:39.075Z,95297.69
2022-09-23T12:48:45.068Z,95298.72
2022-09-23T12:51:20.665Z,95289.91
2022-09-23T12:54:22.946Z,95296.59
2022-09-23T12:57:11.281Z,95301.50
2022-09-23T12:59:57.845Z,95302.81
2022-09-23T13:02:34.899Z,95301.06
2022-09-23T13:05:37.532Z,95294.25
2022-09-23T13:08:11.076Z,95302.13
2022-09-23T13:10:48.445Z,95298.81
2022-09-23T13:13:24.328Z,95272.88
2022-09-23T13:15:54.202Z,95294.56
2022-09-23T13:18:57.976Z,95300.72
2022-09-23T13:22:01.928Z,95295.94
2022-09-23T13:24:47.642Z,95284.72
2022-09-23T13:27:26.751Z,95299.19
2022-09-23T13:30:00.405Z,95289.16
2022-09-23T13:32:32.965Z,95295.84
2022-09-23T13:35:04.341Z,95249.41
2022-09-23T13:37:43.909Z,95299.28
2022-09-23T13:40:19.977Z,95293.50
2022-09-23T13:42:53.773Z,95285.81
2022-09-23T13:45:25.036Z,95286.56
2022-09-23T13:47:56.113Z,95286.88
2022-09-23T13:50:25.880Z,95288.91
2022-09-23T13:52:56.723Z,95286.53
2022-09-23T13:55:29.428Z,95287.09
2022-09-23T13:58:03.490Z,95274.75
2022-09-23T14:00:37.833Z,95224.97
2022-09-23T14:03:18.825Z,95284.00
2022-09-23T14:05:47.753Z,95275.56
2022-09-23T14:08:16.353Z,95282.81
2022-09-23T14:10:48.075Z,95276.03
2022-09-23T14:13:22.382Z,95280.06
2022-09-23T14:15:56.150Z,95276.28
2022-09-23T14:18:33.543Z,95282.53
2022-09-23T14:21:01.857Z,95285.69
2022-09-23T14:23:30.130Z,95272.69
2022-09-23T14:26:00.976Z,95284.38
2022-09-23T14:28:29.695Z,95279.75
2022-09-23T14:30:58.797Z,95281.59
2022-09-23T14:33:29.617Z,95286.97
2022-09-23T14:36:04.588Z,95293.53
2022-09-23T14:38:50.277Z,95297.75
2022-09-23T14:41:24.653Z,95286.22
2022-09-23T14:43:57.283Z,95299.59
2022-09-23T14:46:27.332Z,95304.41
2022-09-23T14:49:05.896Z,95292.81
2022-09-23T14:51:38.759Z,95300.00
2022-09-23T14:54:45.034Z,95308.78
2022-09-23T14:57:27.886Z,95306.72
2022-09-23T14:59:59.834Z,95293.59
2022-09-23T15:02:36.585Z,95300.84
2022-09-23T15:05:16.877Z,95314.00
2022-09-23T15:07:49.331Z,95311.88
2022-09-23T15:10:23.729Z,95321.34
2022-09-23T15:12:55.247Z,95320.50
2022-09-23T15:15:29.205Z,95325.28
2022-09-23T15:18:03.981Z,95338.56
2022-09-23T15:20:33.009Z,95337.31
2022-09-23T15:23:01.837Z,95337.06
2022-09-23T15:25:34.162Z,95335.97
2022-09-23T15:28:19.447Z,95337.91
2022-09-23T15:30:47.694Z,95338.53
2022-09-23T15:33:16.543Z,95288.97
2022-09-23T15:35:47.925Z,95320.53
2022-09-23T15:38:17.659Z,95349.22
2022-09-23T15:40:46.011Z,95355.03
2022-09-23T15:43:21.025Z,95355.38
2022-09-23T15:45:52.936Z,95357.81
2022-09-23T15:48:23.410Z,95366.19
2022-09-23T15:50:52.226Z,95365.31
2022-09-23T15:53:24.048Z,95363.00
2022-09-23T15:55:52.428Z,95381.22
2022-09-23T15:58:23.677Z,95369.84
2022-09-23T16:00:56.397Z,95331.50
2022-09-23T16:03:28.701Z,95384.94
2022-09-23T16:06:02.533Z,95374.84
2022-09-23T16:08:33.163Z,95302.81
2022-09-23T16:11:01.697Z,95381.72
2022-09-23T16:13:31.305Z,95373.84
2022-09-23T16:15:59.523Z,95386.09
2022-09-23T16:18:27.733Z,95391.41
2022-09-23T16:20:56.009Z,95392.09
2022-09-23T16:23:34.675Z,95395.03
2022-09-23T16:26:09.019Z,95401.88
2022-09-23T16:28:38.726Z,95390.31
2022-09-23T16:31:07.242Z,95404.78
2022-09-23T16:33:35.466Z,95408.31
2022-09-23T16:36:04.274Z,95406.44
2022-09-23T16:38:33.008Z,95403.91
2022-09-23T16:41:01.554Z,95398.16
2022-09-23T16:43:39.592Z,95413.19
2022-09-23T16:46:10.309Z,95405.78
2022-09-23T16:48:40.739Z,95422.59
2022-09-23T16:51:09.645Z,95426.88
2022-09-23T16:53:39.401Z,95432.91
2022-09-23T16:56:09.764Z,95300.50
2022-09-23T16:58:38.170Z,95430.13
2022-09-23T17:01:25.180Z,95435.97
2022-09-23T17:03:54.934Z,95434.81
2022-09-23T17:06:25.221Z,95438.28
2022-09-23T17:08:53.382Z,95443.31
2022-09-23T17:11:22.483Z,95452.63
2022-09-23T17:13:51.921Z,95442.53
2022-09-23T17:16:25.512Z,95448.81
2022-09-23T17:18:56.687Z,95467.50
2022-09-23T17:21:26.833Z,95467.84
2022-09-23T17:23:55.228Z,95472.06
2022-09-23T17:26:24.716Z,95477.69
2022-09-23T17:28:54.422Z,95478.81
2022-09-23T17:31:23.539Z,95489.97
2022-09-23T17:33:52.362Z,95329.00
2022-09-23T17:36:22.744Z,95489.50
2022-09-23T17:38:53.715Z,95495.34
2022-09-23T17:41:23.222Z,95478.06
2022-09-23T17:43:56.849Z,95466.94
2022-09-23T17:46:25.356Z,95508.78
2022-09-23T17:48:55.822Z,95523.41
2022-09-23T17:51:26.205Z,95526.81
2022-09-23T17:53:54.451Z,95505.47
2022-09-23T17:56:25.066Z,95496.53
2022-09-23T17:58:54.687Z,95528.75
2022-09-23T18:01:25.619Z,95513.50
2022-09-23T18:03:55.769Z,95534.09
2022-09-23T18:06:27.404Z,95540.41
2022-09-23T18:08:56.475Z,95548.16
2022-09-23T18:11:26.473Z,95542.81
2022-09-23T18:13:56.660Z,95542.22
2022-09-23T18:16:27.527Z,95532.69
2022-09-23T18:18:57.421Z,95538.97
2022-09-23T18:21:28.935Z,95556.22
2022-09-23T18:24:21.394Z,95382.16
2022-09-23T18:26:47.034Z,95562.25
2022-09-23T18:29:16.004Z,95564.28
2022-09-23T18:31:45.173Z,95546.75
2022-09-23T18:34:16.323Z,95515.59
2022-09-23T18:36:46.293Z,95553.63
2022-09-23T18:39:14.504Z,95551.53
2022-09-23T18:41:43.063Z,95580.97
2022-09-23T18:44:11.353Z,95566.88
2022-09-23T18:46:39.748Z,95563.47
2022-09-23T18:49:25.762Z,95592.03
2022-09-23T18:51:57.172Z,95584.75
2022-09-23T18:54:26.463Z,95586.06
2022-09-23T18:56:54.884Z,95588.88
2022-09-23T18:59:26.363Z,95597.19
2022-09-23T19:01:55.682Z,95586.50
2022-09-23T19:04:25.470Z,95596.69
2022-09-23T19:06:56.821Z,95602.06
2022-09-23T19:09:25.537Z,95521.69
2022-09-23T19:11:54.076Z,95602.03
2022-09-23T19:14:22.750Z,95596.34
2022-09-23T19:16:51.068Z,95601.72
2022-09-23T19:19:19.535Z,95605.41
2022-09-23T19:21:47.870Z,95610.44
2022-09-23T19:24:20.168Z,95597.97
2022-09-23T19:26:48.681Z,95604.75
2022-09-23T19:29:19.623Z,95610.09
2022-09-23T19:31:48.112Z,95434.63
2022-09-23T19:34:18.195Z,95609.88
2022-09-23T19:36:48.574Z,95607.69
2022-09-23T19:39:20.011Z,95617.50
2022-09-23T19:41:48.948Z,95620.63
2022-09-23T19:44:17.781Z,95626.59
2022-09-23T19:46:53.658Z,95629.28
2022-09-23T19:49:24.664Z,95633.28
2022-09-23T19:51:56.067Z,95548.44
2022-09-23T19:54:27.684Z,95580.69
2022-09-23T19:56:56.459Z,95632.81
2022-09-23T19:59:26.549Z,95637.34
2022-09-23T20:01:55.121Z,95622.81
2022-09-23T20:04:23.615Z,95644.69
2022-09-23T20:06:52.052Z,95656.50
2022-09-23T20:09:20.718Z,95571.38
2022-09-23T20:11:51.129Z,95655.25
2022-09-23T20:14:19.875Z,95658.09
2022-09-23T20:16:48.443Z,95653.66
2022-09-23T20:19:16.776Z,95655.25
2022-09-23T20:21:45.044Z,95659.34
2022-09-23T20:24:13.424Z,95661.63
2022-09-23T20:26:58.791Z,95667.91
2022-09-23T20:29:28.449Z,95656.75
2022-09-23T20:31:58.693Z,95666.72
2022-09-23T20:34:27.453Z,95674.31
2022-09-23T20:36:55.765Z,95673.41
2022-09-23T20:39:23.995Z,95639.25
2022-09-23T20:41:53.129Z,95668.44
2022-09-23T20:44:21.458Z,95672.81
2022-09-23T20:46:51.463Z,95678.53
2022-09-23T20:49:20.952Z,95673.41
2022-09-23T20:51:50.024Z,95690.00
2022-09-23T20:54:19.539Z,95676.28
2022-09-23T20:56:47.861Z,95684.13
2022-09-23T20:59:18.017Z,95691.34
2022-09-23T21:01:47.823Z,95689.63
2022-09-23T21:04:17.965Z,95685.16
2022-09-23T21:06:46.279Z,95682.94
2022-09-23T21:09:14.512Z,95685.34
2022-09-23T21:11:42.743Z,95688.13
2022-09-23T21:14:11.135Z,95693.38
2022-09-23T21:16:39.709Z,95693.31
2022-09-23T21:19:08.720Z,95693.66
2022-09-23T21:21:39.324Z,95687.13
2022-09-23T21:24:37.810Z,95684.06
2022-09-23T21:26:56.209Z,95694.00
2022-09-23T21:29:24.480Z,95683.09
2022-09-23T21:31:52.818Z,95678.72
2022-09-23T21:34:21.186Z,95676.00
2022-09-23T21:36:50.842Z,95669.13
2022-09-23T21:39:19.633Z,95679.28
2022-09-23T21:41:47.977Z,95680.47
2022-09-23T21:44:16.306Z,95681.06
2022-09-23T21:46:44.831Z,95680.75
2022-09-23T21:49:13.366Z,95676.28
2022-09-23T21:51:42.466Z,95669.19
2022-09-23T21:54:16.175Z,95671.03
2022-09-23T21:56:45.396Z,95673.94
2022-09-23T21:59:13.816Z,95643.41
2022-09-23T22:01:45.175Z,95664.59
2022-09-23T22:04:17.249Z,95660.81
2022-09-23T22:06:46.506Z,95640.22
2022-09-23T22:09:21.655Z,95670.41
2022-09-23T22:12:11.324Z,95584.88
2022-09-23T22:14:40.255Z,95668.06
2022-09-23T22:17:10.969Z,95679.38
2022-09-23T22:19:45.974Z,95672.63
2022-09-23T22:22:17.836Z,95678.56
2022-09-23T22:24:48.760Z,95627.69
2022-09-23T22:27:18.934Z,95689.81
2022-09-23T22:30:04.310Z,95688.41
2022-09-23T22:32:52.832Z,95696.66
2022-09-23T22:35:22.815Z,95698.78
2022-09-23T22:37:51.104Z,95694.22
2022-09-23T22:40:20.933Z,95702.81
2022-09-23T22:42:49.836Z,95699.09
2022-09-23T22:45:18.352Z,95703.34
2022-09-23T22:47:46.627Z,95703.88
2022-09-23T22:50:15.412Z,95697.94
2022-09-23T22:52:44.173Z,95700.88
2022-09-23T22:55:12.930Z,95677.06
2022-09-23T22:57:42.677Z,95702.34
2022-09-23T23:00:12.652Z,95652.44
2022-09-23T23:02:42.566Z,95703.66
2022-09-23T23:05:11.206Z,95697.03
2022-09-23T23:07:39.469Z,95704.47
2022-09-23T23:10:10.295Z,95704.34
2022-09-23T23:12:40.286Z,95700.72
2022-09-23T23:15:12.803Z,95695.84
2022-09-23T23:17:43.739Z,95695.78
2022-09-23T23:20:12.083Z,95692.66
2022-09-23T23:22:40.395Z,95689.94
2022-09-23T23:25:09.880Z,95693.38
2022-09-23T23:27:38.221Z,95689.25
2022-09-23T23:30:08.439Z,95683.41
2022-09-23T23:32:38.367Z,95699.81
2022-09-23T23:35:07.453Z,95705.09
2022-09-23T23:37:35.795Z,95702.66
2022-09-23T23:40:04.233Z,95701.06
2022-09-23T23:42:32.781Z,95698.19
2022-09-23T23:45:01.099Z,95704.13
2022-09-23T23:47:29.366Z,95710.81
2022-09-23T23:49:59.432Z,95704.22
2022-09-23T23:52:27.778Z,95704.50
2022-09-23T23:54:56.348Z,95701.31
2022-09-23T23:57:24.583Z,95707.66
2022-09-23T23:59:52.800Z,95707.63
